createdAt,value
2017-08-07T00:00:31.954Z,31.5
2017-08-07T00:01:28.816Z,31.5
2017-08-07T00:02:28.834Z,31.5
2017-08-07T00:03:31.776Z,31.5
2017-08-07T00:04:32.112Z,31.5
2017-08-07T00:05:29.002Z,31.5
2017-08-07T00:06:29.074Z,31.5
2017-08-07T00:07:34.097Z,31.5
2017-08-07T00:08:34.528Z,31.5
2017-08-07T00:09:32.434Z,31.5
2017-08-07T00:10:34.510Z,31.5
2017-08-07T00:11:29.662Z,31.5
2017-08-07T00:12:34.318Z,31.5
2017-08-07T00:13:32.234Z,31.4
2017-08-07T00:14:29.438Z,31.4
2017-08-07T00:15:29.477Z,31.4
2017-08-07T00:16:35.008Z,31.4
2017-08-07T00:17:29.505Z,31.5
2017-08-07T00:18:29.576Z,31.5
2017-08-07T00:19:29.667Z,31.5
2017-08-07T00:20:32.938Z,31.5
2017-08-07T00:21:34.804Z,31.4
2017-08-07T00:22:35.476Z,31.4
2017-08-07T00:23:32.841Z,31.4
2017-08-07T00:24:33.105Z,31.4
2017-08-07T00:25:29.979Z,31.4
2017-08-07T00:26:33.273Z,31.4
2017-08-07T00:27:30.453Z,31.4
2017-08-07T00:28:30.525Z,31.4
2017-08-07T00:29:33.446Z,31.4
2017-08-07T00:30:30.322Z,31.4
2017-08-07T00:31:30.370Z,31.4
2017-08-07T00:32:35.405Z,31.4
2017-08-07T00:33:35.501Z,31.4
2017-08-07T00:34:30.847Z,31.4
2017-08-07T00:35:33.882Z,31.4
2017-08-07T00:36:32.201Z,31.4
2017-08-07T00:37:33.565Z,31.4
2017-08-07T00:38:35.731Z,31.4
2017-08-07T00:39:30.806Z,31.4
2017-08-07T00:40:31.484Z,31.4
2017-08-07T00:41:31.302Z,31.4
2017-08-07T00:42:33.936Z,31.4
2017-08-07T00:43:31.430Z,31.4
2017-08-07T00:44:36.510Z,31.4
2017-08-07T00:45:31.596Z,31.4
2017-08-07T00:46:32.601Z,31.4
2017-08-07T00:47:31.735Z,31.4
2017-08-07T00:48:31.463Z,31.4
2017-08-07T00:49:31.527Z,31.4
2017-08-07T00:50:35.330Z,31.4
2017-08-07T00:51:34.414Z,31.4
2017-08-07T00:52:36.907Z,31.4
2017-08-07T00:53:31.707Z,31.4
2017-08-07T00:54:34.566Z,31.4
2017-08-07T00:55:31.768Z,31.4
2017-08-07T00:56:32.132Z,31.4
2017-08-07T00:57:32.179Z,31.4
2017-08-07T00:58:32.586Z,31.4
2017-08-07T00:59:35.219Z,31.4
2017-08-07T01:00:32.509Z,31.4
2017-08-07T01:01:32.540Z,31.4
2017-08-07T01:02:37.259Z,31.4
2017-08-07T01:03:37.383Z,31.4
2017-08-07T01:04:35.919Z,31.4
2017-08-07T01:05:32.598Z,31.4
2017-08-07T01:06:37.545Z,31.4
2017-08-07T01:07:35.474Z,31.4
2017-08-07T01:08:37.745Z,31.4
2017-08-07T01:09:32.721Z,31.4
2017-08-07T01:10:35.954Z,31.4
2017-08-07T01:11:32.837Z,31.4
2017-08-07T01:12:32.893Z,31.4
2017-08-07T01:13:35.757Z,31.3
2017-08-07T01:14:32.951Z,31.4
2017-08-07T01:15:37.984Z,31.4
2017-08-07T01:16:33.636Z,31.4
2017-08-07T01:17:33.390Z,31.4
2017-08-07T01:18:36.025Z,31.4
2017-08-07T01:19:36.092Z,31.4
2017-08-07T01:20:33.611Z,31.4
2017-08-07T01:21:38.688Z,31.4
2017-08-07T01:22:34.060Z,31.3
2017-08-07T01:23:33.882Z,31.4
2017-08-07T01:24:38.569Z,31.4
2017-08-07T01:25:33.579Z,31.4
2017-08-07T01:26:33.681Z,31.3
2017-08-07T01:27:36.612Z,31.4
2017-08-07T01:28:39.395Z,31.4
2017-08-07T01:29:36.758Z,31.4
2017-08-07T01:30:38.978Z,31.4
2017-08-07T01:31:37.247Z,31.4
2017-08-07T01:32:34.494Z,31.4
2017-08-07T01:33:39.183Z,31.3
2017-08-07T01:34:37.880Z,31.3
2017-08-07T01:35:34.862Z,31.3
2017-08-07T01:36:34.562Z,31.3
2017-08-07T01:37:39.580Z,31.3
2017-08-07T01:38:37.968Z,31.3
2017-08-07T01:39:40.132Z,31.3
2017-08-07T01:40:38.208Z,31.3
2017-08-07T01:41:40.108Z,31.3
2017-08-07T01:42:37.792Z,31.3
2017-08-07T01:43:37.844Z,31.3
2017-08-07T01:44:40.386Z,31.3
2017-08-07T01:45:35.779Z,31.3
2017-08-07T01:46:38.009Z,31.3
2017-08-07T01:47:35.467Z,31.3
2017-08-07T01:48:40.159Z,31.3
2017-08-07T01:49:35.353Z,31.3
2017-08-07T01:50:38.672Z,31.3
2017-08-07T01:51:35.585Z,31.3
2017-08-07T01:52:40.393Z,31.3
2017-08-07T01:53:35.518Z,31.3
2017-08-07T01:54:38.771Z,31.3
2017-08-07T01:55:35.898Z,31.3
2017-08-07T01:56:35.908Z,31.3
2017-08-07T01:57:36.085Z,31.2
2017-08-07T01:58:35.667Z,31.2
2017-08-07T01:59:35.726Z,31.3
2017-08-07T02:00:41.025Z,31.3
2017-08-07T02:01:36.108Z,31.3
2017-08-07T02:02:38.674Z,31.3
2017-08-07T02:03:36.447Z,31.3
2017-08-07T02:04:40.830Z,31.3
2017-08-07T02:05:41.384Z,31.3
2017-08-07T02:06:41.015Z,31.3
2017-08-07T02:07:41.574Z,31.3
2017-08-07T02:08:40.115Z,31.3
2017-08-07T02:09:39.863Z,31.3
2017-08-07T02:10:36.420Z,31.3
2017-08-07T02:11:36.844Z,31.3
2017-08-07T02:12:39.860Z,31.3
2017-08-07T02:13:39.343Z,31.2
2017-08-07T02:14:36.894Z,31.3
2017-08-07T02:15:37.319Z,31.2
2017-08-07T02:16:37.102Z,31.3
2017-08-07T02:17:36.741Z,31.2
2017-08-07T02:18:41.806Z,31.3
2017-08-07T02:19:42.354Z,31.2
2017-08-07T02:20:38.730Z,31.2
2017-08-07T02:21:43.045Z,31.2
2017-08-07T02:22:37.098Z,31.2
2017-08-07T02:23:37.304Z,31.2
2017-08-07T02:24:38.648Z,31.2
2017-08-07T02:25:41.931Z,31.2
2017-08-07T02:26:40.127Z,31.2
2017-08-07T02:27:40.120Z,31.2
2017-08-07T02:28:37.353Z,31.2
2017-08-07T02:29:42.330Z,31.2
2017-08-07T02:30:37.158Z,31.2
2017-08-07T02:31:40.993Z,31.2
2017-08-07T02:32:37.487Z,31.2
2017-08-07T02:33:37.529Z,31.2
2017-08-07T02:34:37.359Z,31.2
2017-08-07T02:35:42.331Z,31.2
2017-08-07T02:36:40.650Z,31.2
2017-08-07T02:37:37.683Z,31.2
2017-08-07T02:38:37.722Z,31.2
2017-08-07T02:39:38.138Z,31.2
2017-08-07T02:40:37.872Z,31.2
2017-08-07T02:41:42.612Z,31.2
2017-08-07T02:42:42.665Z,31.2
2017-08-07T02:43:43.002Z,31.2
2017-08-07T02:44:38.033Z,31.2
2017-08-07T02:45:38.357Z,31.2
2017-08-07T02:46:38.099Z,31.2
2017-08-07T02:47:38.188Z,31.2
2017-08-07T02:48:43.195Z,31.2
2017-08-07T02:49:38.077Z,31.2
2017-08-07T02:50:38.032Z,31.2
2017-08-07T02:51:38.647Z,31.2
2017-08-07T02:52:38.048Z,31.2
2017-08-07T02:53:38.129Z,31.2
2017-08-07T02:54:41.440Z,31.2
2017-08-07T02:55:38.243Z,31.2
2017-08-07T02:56:43.609Z,31.2
2017-08-07T02:57:38.686Z,31.1
2017-08-07T02:58:38.494Z,31.2
2017-08-07T02:59:38.766Z,31.2
2017-08-07T03:00:41.391Z,31.2
2017-08-07T03:01:43.649Z,31.2
2017-08-07T03:02:43.594Z,31.2
2017-08-07T03:03:41.847Z,31.2
2017-08-07T03:04:38.750Z,31.2
2017-08-07T03:05:44.119Z,31.2
2017-08-07T03:06:38.884Z,31.2
2017-08-07T03:07:44.242Z,31.2
2017-08-07T03:08:44.301Z,31.2
2017-08-07T03:09:39.110Z,31.2
2017-08-07T03:10:39.223Z,31.2
2017-08-07T03:11:42.371Z,31.2
2017-08-07T03:12:39.606Z,31.1
2017-08-07T03:13:42.157Z,31.2
2017-08-07T03:14:39.357Z,31.1
2017-08-07T03:15:42.533Z,31.1
2017-08-07T03:16:39.446Z,31.1
2017-08-07T03:17:39.558Z,31.1
2017-08-07T03:18:44.858Z,31.1
2017-08-07T03:19:42.811Z,31.1
2017-08-07T03:20:44.985Z,31.1
2017-08-07T03:21:40.065Z,31.1
2017-08-07T03:22:42.993Z,31.1
2017-08-07T03:23:40.200Z,31.1
2017-08-07T03:24:42.845Z,31.1
2017-08-07T03:25:42.903Z,31.1
2017-08-07T03:26:40.118Z,31.1
2017-08-07T03:27:40.169Z,31.1
2017-08-07T03:28:45.497Z,31.1
2017-08-07T03:29:43.286Z,31.1
2017-08-07T03:30:43.403Z,31.1
2017-08-07T03:31:40.761Z,31.1
2017-08-07T03:32:40.566Z,31.1
2017-08-07T03:33:40.614Z,31.1
2017-08-07T03:34:43.829Z,31.1
2017-08-07T03:35:40.545Z,31.1
2017-08-07T03:36:40.896Z,31.1
2017-08-07T03:37:40.913Z,31.1
2017-08-07T03:38:40.909Z,31.1
2017-08-07T03:39:40.664Z,31.1
2017-08-07T03:40:46.033Z,31.1
2017-08-07T03:41:43.671Z,31.1
2017-08-07T03:42:40.852Z,31.1
2017-08-07T03:43:40.869Z,31.1
2017-08-07T03:44:40.846Z,31.1
2017-08-07T03:45:40.961Z,31.1
2017-08-07T03:46:41.318Z,31.1
2017-08-07T03:47:41.399Z,31.1
2017-08-07T03:48:41.207Z,31.1
2017-08-07T03:49:41.254Z,31.1
2017-08-07T03:50:41.267Z,31.1
2017-08-07T03:51:46.521Z,31.1
2017-08-07T03:52:41.282Z,31.1
2017-08-07T03:53:41.364Z,31.1
2017-08-07T03:54:41.762Z,31.1
2017-08-07T03:55:41.809Z,31.1
2017-08-07T03:56:46.585Z,31.1
2017-08-07T03:57:41.953Z,31.1
2017-08-07T03:58:44.908Z,31.1
2017-08-07T03:59:41.817Z,31.1
2017-08-07T04:00:42.149Z,31.1
2017-08-07T04:01:45.097Z,31.1
2017-08-07T04:02:42.290Z,31.1
2017-08-07T04:03:44.866Z,31.1
2017-08-07T04:04:47.378Z,31.1
2017-08-07T04:05:42.188Z,31.1
2017-08-07T04:06:47.557Z,31.1
2017-08-07T04:07:42.296Z,31.1
2017-08-07T04:08:47.559Z,31
2017-08-07T04:09:47.572Z,31.1
2017-08-07T04:10:42.713Z,31.1
2017-08-07T04:11:42.699Z,31
2017-08-07T04:12:42.829Z,31.1
2017-08-07T04:13:42.500Z,31.1
2017-08-07T04:14:42.616Z,31.1
2017-08-07T04:15:43.014Z,31.1
2017-08-07T04:16:45.615Z,31
2017-08-07T04:17:46.011Z,31.1
2017-08-07T04:18:42.883Z,31.1
2017-08-07T04:19:47.913Z,31.1
2017-08-07T04:20:47.982Z,31.1
2017-08-07T04:21:43.430Z,31.1
2017-08-07T04:22:45.949Z,31.1
2017-08-07T04:23:43.449Z,31
2017-08-07T04:24:46.420Z,31
2017-08-07T04:25:43.664Z,30.9
2017-08-07T04:26:48.325Z,30.9
2017-08-07T04:27:46.241Z,30.8
2017-08-07T04:28:43.752Z,30.8
2017-08-07T04:29:48.804Z,30.8
2017-08-07T04:30:43.575Z,30.7
2017-08-07T04:31:48.584Z,30.7
2017-08-07T04:32:46.843Z,30.7
2017-08-07T04:33:44.086Z,30.7
2017-08-07T04:34:44.090Z,30.7
2017-08-07T04:35:46.700Z,30.7
2017-08-07T04:36:49.487Z,30.8
2017-08-07T04:37:44.298Z,30.8
2017-08-07T04:38:44.034Z,30.8
2017-08-07T04:39:49.593Z,30.7
2017-08-07T04:40:46.934Z,30.6
2017-08-07T04:41:44.447Z,30.5
2017-08-07T04:42:47.015Z,30.5
2017-08-07T04:43:47.433Z,30.4
2017-08-07T04:44:47.208Z,30.4
2017-08-07T04:45:47.454Z,30.3
2017-08-07T04:46:49.343Z,30.1
2017-08-07T04:47:44.468Z,29.9
2017-08-07T04:48:44.838Z,29.6
2017-08-07T04:49:49.479Z,29.4
2017-08-07T04:50:49.532Z,29.2
2017-08-07T04:51:49.852Z,28.9
2017-08-07T04:52:49.964Z,28.6
2017-08-07T04:53:44.970Z,28.4
2017-08-07T04:54:45.037Z,28.3
2017-08-07T04:55:45.116Z,28.1
2017-08-07T04:56:47.999Z,28
2017-08-07T04:57:46.090Z,27.8
2017-08-07T04:58:45.223Z,27.7
2017-08-07T04:59:50.245Z,27.6
2017-08-07T05:00:44.961Z,27.5
2017-08-07T05:01:48.114Z,27.4
2017-08-07T05:02:47.891Z,27
2017-08-07T05:03:50.359Z,26.5
2017-08-07T05:04:47.980Z,26.2
2017-08-07T05:05:48.043Z,25.8
2017-08-07T05:06:45.240Z,25.6
2017-08-07T05:07:50.625Z,25.5
2017-08-07T05:08:45.691Z,25.3
2017-08-07T05:09:48.819Z,25.2
2017-08-07T05:10:50.734Z,25
2017-08-07T05:11:45.547Z,24.9
2017-08-07T05:12:45.582Z,24.9
2017-08-07T05:13:49.341Z,24.8
2017-08-07T05:14:50.627Z,24.7
2017-08-07T05:15:49.469Z,24.6
2017-08-07T05:16:49.065Z,24.4
2017-08-07T05:17:46.140Z,24
2017-08-07T05:18:49.061Z,23.9
2017-08-07T05:19:52.839Z,24
2017-08-07T05:20:51.258Z,24.1
2017-08-07T05:21:51.557Z,24.2
2017-08-07T05:22:51.027Z,24.4
2017-08-07T05:23:51.432Z,24.5
2017-08-07T05:24:46.450Z,24.6
2017-08-07T05:25:51.590Z,24.7
2017-08-07T05:26:46.877Z,24.7
2017-08-07T05:27:46.771Z,24.9
2017-08-07T05:28:49.303Z,24.9
2017-08-07T05:29:49.292Z,25.1
2017-08-07T05:30:51.488Z,25.3
2017-08-07T05:31:46.963Z,25.5
2017-08-07T05:32:51.934Z,25.6
2017-08-07T05:33:52.924Z,25.8
2017-08-07T05:34:51.695Z,25.9
2017-08-07T05:35:46.818Z,26
2017-08-07T05:36:52.125Z,26.1
2017-08-07T05:37:51.849Z,26.2
2017-08-07T05:38:49.722Z,26.3
2017-08-07T05:39:52.585Z,26.4
2017-08-07T05:40:50.197Z,26.4
2017-08-07T05:41:47.690Z,26.5
2017-08-07T05:42:47.110Z,26.5
2017-08-07T05:43:51.701Z,26.6
2017-08-07T05:44:47.831Z,26.6
2017-08-07T05:45:47.820Z,26.6
2017-08-07T05:46:48.417Z,26.7
2017-08-07T05:47:47.399Z,26.7
2017-08-07T05:48:52.737Z,26.7
2017-08-07T05:49:47.880Z,26.7
2017-08-07T05:50:47.641Z,26.7
2017-08-07T05:51:53.248Z,26.7
2017-08-07T05:52:50.525Z,26.8
2017-08-07T05:53:50.638Z,26.8
2017-08-07T05:54:48.229Z,26.8
2017-08-07T05:55:52.985Z,26.9
2017-08-07T05:56:48.224Z,26.9
2017-08-07T05:57:48.438Z,27
2017-08-07T05:58:49.454Z,27
2017-08-07T05:59:48.286Z,27
2017-08-07T06:00:53.262Z,27.1
2017-08-07T06:01:50.911Z,27
2017-08-07T06:02:48.443Z,26.8
2017-08-07T06:03:48.678Z,26.6
2017-08-07T06:04:53.607Z,26.4
2017-08-07T06:05:51.389Z,26.3
2017-08-07T06:06:53.883Z,26.2
2017-08-07T06:07:48.648Z,26.1
2017-08-07T06:08:53.694Z,26
2017-08-07T06:09:49.344Z,25.9
2017-08-07T06:10:53.810Z,25.8
2017-08-07T06:11:52.938Z,25.8
2017-08-07T06:12:53.855Z,25.8
2017-08-07T06:13:53.965Z,25.8
2017-08-07T06:14:54.051Z,25.8
2017-08-07T06:15:49.832Z,25.8
2017-08-07T06:16:53.376Z,25.8
2017-08-07T06:17:55.173Z,25.7
2017-08-07T06:18:51.378Z,25.7
2017-08-07T06:19:49.900Z,25.8
2017-08-07T06:20:56.614Z,25.6
2017-08-07T06:21:49.355Z,25.9
2017-08-07T06:22:49.342Z,26
2017-08-07T06:23:52.589Z,26
2017-08-07T06:24:54.712Z,26
2017-08-07T06:25:49.785Z,26
2017-08-07T06:26:52.756Z,26
2017-08-07T06:27:49.995Z,26.1
2017-08-07T06:28:49.661Z,26.1
2017-08-07T06:29:53.326Z,26.1
2017-08-07T06:30:53.315Z,26.2
2017-08-07T06:31:56.309Z,26.2
2017-08-07T06:32:49.819Z,26.2
2017-08-07T06:33:49.917Z,26.2
2017-08-07T06:34:53.187Z,26.4
2017-08-07T06:35:49.972Z,26.6
2017-08-07T06:36:50.764Z,26.9
2017-08-07T06:37:55.473Z,27.1
2017-08-07T06:38:53.113Z,27.2
2017-08-07T06:39:50.549Z,27.4
2017-08-07T06:40:55.614Z,27.5
2017-08-07T06:41:50.315Z,27.6
2017-08-07T06:42:51.034Z,27.6
2017-08-07T06:43:53.261Z,27.8
2017-08-07T06:44:53.307Z,27.8
2017-08-07T06:45:51.185Z,28
2017-08-07T06:46:50.816Z,28
2017-08-07T06:47:50.661Z,28.1
2017-08-07T06:48:50.935Z,28.2
2017-08-07T06:49:51.265Z,28.2
2017-08-07T06:50:53.536Z,28.3
2017-08-07T06:51:54.057Z,28.3
2017-08-07T06:52:51.223Z,28.4
2017-08-07T06:53:50.936Z,28.4
2017-08-07T06:54:56.021Z,28.5
2017-08-07T06:55:56.413Z,28.5
2017-08-07T06:56:53.963Z,28.6
2017-08-07T06:57:51.499Z,28.6
2017-08-07T06:58:54.497Z,28.6
2017-08-07T06:59:51.620Z,28.7
2017-08-07T07:00:56.707Z,28.7
2017-08-07T07:01:56.926Z,28.8
2017-08-07T07:02:52.104Z,28.8
2017-08-07T07:03:51.889Z,28.8
2017-08-07T07:04:52.644Z,28.9
2017-08-07T07:05:54.924Z,28.9
2017-08-07T07:06:55.166Z,29
2017-08-07T07:07:52.584Z,29
2017-08-07T07:08:52.000Z,29
2017-08-07T07:09:52.042Z,29.1
2017-08-07T07:10:51.992Z,29.1
2017-08-07T07:11:52.222Z,29.2
2017-08-07T07:12:59.049Z,29.2
2017-08-07T07:13:52.245Z,29.3
2017-08-07T07:14:52.641Z,29.4
2017-08-07T07:15:52.284Z,29.5
2017-08-07T07:16:57.642Z,29.6
2017-08-07T07:17:57.474Z,29.7
2017-08-07T07:18:53.209Z,29.8
2017-08-07T07:19:55.135Z,29.9
2017-08-07T07:20:55.480Z,29.9
2017-08-07T07:21:55.277Z,30
2017-08-07T07:22:55.355Z,30
2017-08-07T07:23:54.757Z,30.1
2017-08-07T07:24:57.900Z,30.2
2017-08-07T07:25:53.070Z,30.3
2017-08-07T07:26:53.046Z,30.3
2017-08-07T07:27:52.863Z,30.4
2017-08-07T07:29:00.189Z,30.4
2017-08-07T07:29:58.895Z,30.5
2017-08-07T07:30:58.425Z,30.6
2017-08-07T07:31:57.057Z,30.6
2017-08-07T07:32:54.240Z,30.6
2017-08-07T07:34:00.464Z,30.7
2017-08-07T07:35:01.616Z,30.7
2017-08-07T07:35:56.469Z,30.8
2017-08-07T07:36:53.843Z,30.8
2017-08-07T07:37:53.762Z,30.8
2017-08-07T07:38:58.698Z,30.9
2017-08-07T07:39:54.213Z,30.9
2017-08-07T07:42:16.269Z,30.9
2017-08-07T07:43:01.326Z,31
2017-08-07T07:43:54.009Z,31
2017-08-07T07:44:56.617Z,31
2017-08-07T07:45:53.996Z,31
2017-08-07T07:46:57.376Z,31.1
2017-08-07T07:47:57.075Z,31.1
2017-08-07T07:48:58.878Z,31.1
2017-08-07T07:49:53.989Z,31.1
2017-08-07T07:51:03.784Z,31.2
2017-08-07T07:51:55.276Z,31.3
2017-08-07T07:53:06.727Z,31.3
2017-08-07T07:53:54.366Z,31.3
2017-08-07T07:57:01.021Z,31.4
2017-08-07T07:58:15.000Z,31.5
2017-08-07T07:58:58.656Z,31.5
2017-08-07T08:00:59.029Z,31.6
2017-08-07T08:01:56.799Z,31.7
2017-08-07T08:02:59.563Z,31.7
2017-08-07T08:03:59.956Z,31.8
2017-08-07T08:05:00.766Z,31.8
2017-08-07T08:05:56.838Z,31.8
2017-08-07T08:06:59.243Z,31.9
2017-08-07T08:07:55.837Z,32
2017-08-07T08:09:00.260Z,32
2017-08-07T08:09:59.984Z,32
2017-08-07T08:10:55.022Z,32
2017-08-07T08:12:05.879Z,32
2017-08-07T08:12:55.546Z,31.9
2017-08-07T08:13:58.122Z,31.8
2017-08-07T08:14:59.936Z,31.8
2017-08-07T08:15:58.164Z,31.7
2017-08-07T08:16:58.233Z,31.7
2017-08-07T08:17:58.650Z,31.6
2017-08-07T08:20:00.403Z,31.5
2017-08-07T08:20:57.307Z,31.5
2017-08-07T08:21:56.365Z,31.5
2017-08-07T08:23:00.192Z,31.6
2017-08-07T08:23:58.709Z,31.6
2017-08-07T08:24:57.006Z,31.5
2017-08-07T08:25:56.532Z,31.5
2017-08-07T08:27:01.775Z,31.5
2017-08-07T08:28:00.474Z,31.5
2017-08-07T08:28:59.455Z,31.5
2017-08-07T08:30:03.141Z,31.5
2017-08-07T08:30:56.359Z,31.5
2017-08-07T08:31:56.041Z,31.5
2017-08-07T08:33:02.047Z,31.5
2017-08-07T08:33:57.409Z,31.6
2017-08-07T08:35:02.480Z,31.6
2017-08-07T08:36:01.566Z,31.6
2017-08-07T08:37:56.848Z,31.6
2017-08-07T08:38:59.355Z,31.6
2017-08-07T08:39:59.616Z,31.7
2017-08-07T08:40:56.803Z,31.7
2017-08-07T08:42:01.609Z,31.7
2017-08-07T08:42:56.892Z,31.7
2017-08-07T08:44:01.903Z,31.7
2017-08-07T08:45:02.954Z,31.7
2017-08-07T08:45:57.425Z,31.7
2017-08-07T08:47:01.760Z,31.7
2017-08-07T08:47:59.976Z,31.7
2017-08-07T08:49:00.866Z,31.7
2017-08-07T08:50:01.851Z,31.6
2017-08-07T08:51:02.737Z,31.6
2017-08-07T08:52:02.668Z,31.6
2017-08-07T08:52:57.342Z,31.6
2017-08-07T08:53:57.182Z,31.6
2017-08-07T08:55:00.135Z,31.6
2017-08-07T08:56:02.270Z,31.6
2017-08-07T08:57:01.128Z,31.6
2017-08-07T08:57:57.330Z,31.6
2017-08-07T08:59:01.356Z,31.6
2017-08-07T09:00:00.512Z,31.6
2017-08-07T09:00:59.848Z,31.6
2017-08-07T09:02:03.650Z,31.6
2017-08-07T09:03:01.913Z,31.6
2017-08-07T09:03:57.484Z,31.6
2017-08-07T09:05:02.821Z,31.6
2017-08-07T09:06:03.119Z,31.7
2017-08-07T09:07:01.263Z,31.7
2017-08-07T09:07:57.702Z,31.6
2017-08-07T09:09:00.984Z,31.6
2017-08-07T09:09:58.131Z,31.7
2017-08-07T09:11:01.105Z,31.7
2017-08-07T09:11:58.291Z,31.7
2017-08-07T09:13:03.438Z,31.7
2017-08-07T09:13:58.092Z,31.6
2017-08-07T09:15:01.305Z,31.7
2017-08-07T09:15:58.191Z,31.6
2017-08-07T09:16:58.705Z,31.7
2017-08-07T09:17:59.347Z,31.7
2017-08-07T09:18:58.591Z,31.6
2017-08-07T09:20:03.687Z,31.7
2017-08-07T09:21:05.702Z,31.7
2017-08-07T09:21:59.799Z,31.7
2017-08-07T09:22:58.575Z,31.7
2017-08-07T09:24:03.934Z,31.7
2017-08-07T09:25:01.891Z,31.7
2017-08-07T09:26:01.949Z,31.8
2017-08-07T09:26:59.214Z,31.8
2017-08-07T09:27:59.156Z,31.8
2017-08-07T09:29:02.514Z,31.8
2017-08-07T09:30:05.110Z,31.8
2017-08-07T09:30:59.125Z,31.8
2017-08-07T09:31:59.968Z,31.8
2017-08-07T09:33:00.688Z,31.8
2017-08-07T09:34:04.822Z,31.8
2017-08-07T09:34:59.477Z,31.8
2017-08-07T09:36:06.048Z,31.8
2017-08-07T09:37:02.770Z,31.8
2017-08-07T09:38:06.712Z,31.8
2017-08-07T09:39:06.397Z,31.8
2017-08-07T09:39:59.924Z,31.8
2017-08-07T09:41:00.913Z,31.8
2017-08-07T09:42:02.693Z,31.8
2017-08-07T09:43:02.291Z,31.8
2017-08-07T09:43:59.835Z,31.8
2017-08-07T09:44:59.864Z,31.8
2017-08-07T09:46:06.937Z,31.8
2017-08-07T09:47:05.177Z,31.8
2017-08-07T09:48:00.019Z,31.7
2017-08-07T09:48:59.728Z,31.7
2017-08-07T09:50:00.066Z,31.7
2017-08-07T09:50:59.870Z,31.7
2017-08-07T09:52:05.563Z,31.7
2017-08-07T09:53:07.133Z,31.7
2017-08-07T09:54:07.413Z,31.7
2017-08-07T09:55:09.746Z,31.7
2017-08-07T09:56:02.213Z,31.7
2017-08-07T09:57:03.999Z,31.8
2017-08-07T09:58:00.481Z,31.7
2017-08-07T09:59:05.594Z,31.7
2017-08-07T10:00:01.351Z,31.7
2017-08-07T10:01:06.731Z,31.7
2017-08-07T10:02:06.638Z,31.6
2017-08-07T10:03:08.180Z,31.6
2017-08-07T10:04:01.721Z,31.6
2017-08-07T10:05:04.420Z,31.6
2017-08-07T10:06:02.232Z,31.6
2017-08-07T10:07:03.550Z,31.6
2017-08-07T10:08:01.631Z,31.6
2017-08-07T10:09:02.253Z,31.6
2017-08-07T10:10:06.317Z,31.6
2017-08-07T10:11:01.189Z,31.6
2017-08-07T10:12:01.626Z,31.6
2017-08-07T10:13:07.907Z,31.6
2017-08-07T10:14:07.864Z,31.6
2017-08-07T10:15:01.512Z,31.7
2017-08-07T10:16:08.758Z,31.6
2017-08-07T10:17:06.252Z,31.7
2017-08-07T10:18:07.093Z,31.7
2017-08-07T10:19:06.644Z,31.7
2017-08-07T10:20:01.474Z,31.7
2017-08-07T10:21:06.666Z,31.7
2017-08-07T10:22:05.522Z,31.7
2017-08-07T10:23:03.183Z,31.7
2017-08-07T10:24:07.819Z,31.7
2017-08-07T10:25:06.647Z,31.7
2017-08-07T10:26:01.610Z,31.8
2017-08-07T10:27:09.540Z,31.8
2017-08-07T10:28:02.714Z,31.9
2017-08-07T10:29:04.981Z,31.9
2017-08-07T10:30:08.544Z,31.9
2017-08-07T10:31:02.426Z,31.9
2017-08-07T10:32:07.477Z,32
2017-08-07T10:33:01.978Z,32
2017-08-07T10:34:05.919Z,32
2017-08-07T10:35:03.039Z,32
2017-08-07T10:36:05.271Z,32.1
2017-08-07T10:37:09.340Z,32
2017-08-07T10:38:03.649Z,32
2017-08-07T10:39:07.932Z,32
2017-08-07T10:40:06.103Z,32
2017-08-07T10:41:02.633Z,32
2017-08-07T10:42:03.341Z,32
2017-08-07T10:43:03.407Z,32
2017-08-07T10:44:05.647Z,32.1
2017-08-07T10:45:02.824Z,32.2
2017-08-07T10:46:03.536Z,32.2
2017-08-07T10:47:05.946Z,32.2
2017-08-07T10:48:09.247Z,32.2
2017-08-07T10:49:07.980Z,32.2
2017-08-07T10:50:07.777Z,32.2
2017-08-07T10:51:03.730Z,32.2
2017-08-07T10:52:02.757Z,32.2
2017-08-07T10:53:03.539Z,32.2
2017-08-07T10:54:03.027Z,32.2
2017-08-07T10:55:03.918Z,32.2
2017-08-07T10:56:03.115Z,32.2
2017-08-07T10:57:08.718Z,32.2
2017-08-07T10:58:18.208Z,32.3
2017-08-07T10:59:20.467Z,32.3
2017-08-07T11:01:19.424Z,32.3
2017-08-07T11:02:07.271Z,32.3
2017-08-07T11:03:10.768Z,32.4
2017-08-07T11:04:08.438Z,32.4
2017-08-07T11:05:09.054Z,32.4
2017-08-07T11:06:06.421Z,32.4
2017-08-07T11:07:04.944Z,32.4
2017-08-07T11:08:04.990Z,32.4
2017-08-07T11:09:07.126Z,32.4
2017-08-07T11:10:08.249Z,32.4
2017-08-07T11:11:03.786Z,32.5
2017-08-07T11:12:09.673Z,32.5
2017-08-07T11:13:05.603Z,32.5
2017-08-07T11:14:07.847Z,32.5
2017-08-07T11:15:08.403Z,32.5
2017-08-07T11:16:07.090Z,32.5
2017-08-07T11:17:06.822Z,32.5
2017-08-07T11:18:04.616Z,32.5
2017-08-07T11:19:09.060Z,32.5
2017-08-07T11:20:06.984Z,32.6
2017-08-07T11:21:04.455Z,32.6
2017-08-07T11:22:07.638Z,32.6
2017-08-07T11:23:07.519Z,32.6
2017-08-07T11:24:07.684Z,32.6
2017-08-07T11:25:08.644Z,32.6
2017-08-07T11:26:08.238Z,32.5
2017-08-07T11:27:11.208Z,32.5
2017-08-07T11:28:11.516Z,32.5
2017-08-07T11:29:11.883Z,32.6
2017-08-07T11:30:11.015Z,32.6
2017-08-07T11:31:09.863Z,32.5
2017-08-07T11:32:08.152Z,32.5
2017-08-07T11:33:05.734Z,32.6
2017-08-07T11:34:09.696Z,32.6
2017-08-07T11:35:06.494Z,32.6
2017-08-07T11:36:06.500Z,32.6
2017-08-07T11:37:05.483Z,32.6
2017-08-07T11:38:10.581Z,32.6
2017-08-07T11:39:05.423Z,32.6
2017-08-07T11:40:05.460Z,32.6
2017-08-07T11:41:06.022Z,32.6
2017-08-07T11:42:05.863Z,32.6
2017-08-07T11:43:11.235Z,32.6
2017-08-07T11:44:10.797Z,32.5
2017-08-07T11:45:05.651Z,32.5
2017-08-07T11:46:13.282Z,32.5
2017-08-07T11:47:09.430Z,32.4
2017-08-07T11:48:11.970Z,32.4
2017-08-07T11:49:15.631Z,32.4
2017-08-07T11:50:11.655Z,32.4
2017-08-07T11:51:12.513Z,32.4
2017-08-07T11:52:14.706Z,32.4
2017-08-07T11:53:06.455Z,32.4
2017-08-07T11:54:10.135Z,32.4
2017-08-07T11:55:11.864Z,32.4
2017-08-07T11:56:10.715Z,32.5
2017-08-07T11:57:09.447Z,32.5
2017-08-07T11:58:10.062Z,32.6
2017-08-07T11:59:06.727Z,32.6
2017-08-07T12:00:07.497Z,32.6
2017-08-07T12:01:06.339Z,32.6
2017-08-07T12:02:11.520Z,32.6
2017-08-07T12:03:07.789Z,32.6
2017-08-07T12:04:10.049Z,32.6
2017-08-07T12:05:06.530Z,32.6
2017-08-07T12:06:11.074Z,32.6
2017-08-07T12:07:11.276Z,32.6
2017-08-07T12:08:09.669Z,32.6
2017-08-07T12:09:06.796Z,32.7
2017-08-07T12:10:07.732Z,32.7
2017-08-07T12:11:13.884Z,32.8
2017-08-07T12:12:09.920Z,32.7
2017-08-07T12:13:12.384Z,32.7
2017-08-07T12:14:12.947Z,32.8
2017-08-07T12:15:12.382Z,32.7
2017-08-07T12:16:10.262Z,32.7
2017-08-07T12:17:14.772Z,32.7
2017-08-07T12:18:10.149Z,32.7
2017-08-07T12:19:14.215Z,32.8
2017-08-07T12:20:10.534Z,32.8
2017-08-07T12:21:08.574Z,32.8
2017-08-07T12:22:10.496Z,32.8
2017-08-07T12:23:09.963Z,32.8
2017-08-07T12:24:10.706Z,32.9
2017-08-07T12:25:13.087Z,32.9
2017-08-07T12:26:12.132Z,33
2017-08-07T12:27:07.500Z,33
2017-08-07T12:28:10.650Z,33
2017-08-07T12:29:11.246Z,33
2017-08-07T12:30:07.997Z,33.1
2017-08-07T12:31:12.562Z,33
2017-08-07T12:32:12.879Z,33.1
2017-08-07T12:33:07.989Z,33.1
2017-08-07T12:34:08.018Z,33.1
2017-08-07T12:35:07.753Z,33.1
2017-08-07T12:36:10.294Z,33.2
2017-08-07T12:37:12.382Z,33.2
2017-08-07T12:38:10.419Z,33.2
2017-08-07T12:39:11.029Z,33.2
2017-08-07T12:40:07.930Z,33.2
2017-08-07T12:41:12.983Z,33.2
2017-08-07T12:42:10.876Z,33.3
2017-08-07T12:43:10.989Z,33.2
2017-08-07T12:44:08.220Z,33.2
2017-08-07T12:45:12.958Z,33.3
2017-08-07T12:46:11.687Z,33.3
2017-08-07T12:47:08.067Z,33.3
2017-08-07T12:48:08.414Z,33.3
2017-08-07T12:49:08.835Z,33.3
2017-08-07T12:50:16.734Z,33.4
2017-08-07T12:51:13.287Z,33.4
2017-08-07T12:52:13.524Z,33.4
2017-08-07T12:53:10.470Z,33.4
2017-08-07T12:54:11.187Z,33.4
2017-08-07T12:55:13.756Z,33.4
2017-08-07T12:56:11.603Z,33.4
2017-08-07T12:57:14.482Z,33.4
2017-08-07T12:58:08.870Z,33.4
2017-08-07T12:59:08.968Z,33.4
2017-08-07T13:00:09.682Z,33.4
2017-08-07T13:01:15.063Z,33.3
2017-08-07T13:02:08.984Z,33.4
2017-08-07T13:03:12.045Z,33.4
2017-08-07T13:04:12.811Z,33.4
2017-08-07T13:05:09.408Z,33.4
2017-08-07T13:06:10.208Z,33.4
2017-08-07T13:07:14.348Z,33.4
2017-08-07T13:08:12.216Z,33.4
2017-08-07T13:09:18.933Z,33.4
2017-08-07T13:10:15.690Z,33.3
2017-08-07T13:11:14.061Z,33.4
2017-08-07T13:12:10.997Z,33.4
2017-08-07T13:13:13.565Z,33.4
2017-08-07T13:14:13.194Z,33.4
2017-08-07T13:15:13.215Z,33.4
2017-08-07T13:16:15.587Z,33.4
2017-08-07T13:17:10.940Z,33.5
2017-08-07T13:18:14.698Z,33.5
2017-08-07T13:19:11.180Z,33.5
2017-08-07T13:20:13.479Z,33.5
2017-08-07T13:21:11.043Z,33.5
2017-08-07T13:22:10.739Z,33.6
2017-08-07T13:23:10.499Z,33.6
2017-08-07T13:24:15.620Z,33.6
2017-08-07T13:25:10.189Z,33.6
2017-08-07T13:26:15.463Z,33.6
2017-08-07T13:27:16.089Z,33.6
2017-08-07T13:28:17.220Z,33.5
2017-08-07T13:29:11.098Z,33.6
2017-08-07T13:30:10.970Z,33.6